sensor_id;sensor_type;location;lat;lon;timestamp;P1;durP1;ratioP1;P2;durP2;ratioP2
20824;SDS011;10573;50.936;6.978;2024-01-11T00:01:14;48.13;;;27.30;;
20824;SDS011;10573;50.936;6.978;2024-01-11T00:03:40;49.77;;;26.87;;
20824;SDS011;10573;50.936;6.978;2024-01-11T00:06:05;46.80;;;26.23;;
20824;SDS011;10573;50.936;6.978;2024-01-11T00:08:31;47.63;;;26.57;;
20824;SDS011;10573;50.936;6.978;2024-01-11T00:10:56;47.77;;;26.80;;
20824;SDS011;10573;50.936;6.978;2024-01-11T00:13:21;47.13;;;26.77;;
20824;SDS011;10573;50.936;6.978;2024-01-11T00:15:47;47.75;;;26.45;;
20824;SDS011;10573;50.936;6.978;2024-01-11T00:18:12;45.53;;;25.93;;
20824;SDS011;10573;50.936;6.978;2024-01-11T00:20:38;45.27;;;26.23;;
20824;SDS011;10573;50.936;6.978;2024-01-11T00:23:03;47.57;;;26.30;;
20824;SDS011;10573;50.936;6.978;2024-01-11T00:25:28;44.87;;;26.50;;
20824;SDS011;10573;50.936;6.978;2024-01-11T00:27:54;48.22;;;26.48;;
20824;SDS011;10573;50.936;6.978;2024-01-11T00:30:19;45.38;;;25.60;;
20824;SDS011;10573;50.936;6.978;2024-01-11T00:32:44;46.90;;;26.37;;
20824;SDS011;10573;50.936;6.978;2024-01-11T00:35:10;45.50;;;26.63;;
20824;SDS011;10573;50.936;6.978;2024-01-11T00:37:35;49.53;;;27.43;;
20824;SDS011;10573;50.936;6.978;2024-01-11T00:40:01;44.93;;;26.17;;
20824;SDS011;10573;50.936;6.978;2024-01-11T00:42:26;46.33;;;26.10;;
20824;SDS011;10573;50.936;6.978;2024-01-11T00:44:51;49.80;;;27.08;;
20824;SDS011;10573;50.936;6.978;2024-01-11T00:47:17;49.13;;;26.83;;
20824;SDS011;10573;50.936;6.978;2024-01-11T00:49:42;44.60;;;25.63;;
20824;SDS011;10573;50.936;6.978;2024-01-11T00:52:08;47.47;;;26.57;;
20824;SDS011;10573;50.936;6.978;2024-01-11T00:54:34;48.25;;;27.30;;
20824;SDS011;10573;50.936;6.978;2024-01-11T00:57:00;45.95;;;25.60;;
20824;SDS011;10573;50.936;6.978;2024-01-11T00:59:26;44.97;;;25.23;;
20824;SDS011;10573;50.936;6.978;2024-01-11T01:01:51;48.77;;;26.33;;
20824;SDS011;10573;50.936;6.978;2024-01-11T01:04:16;45.53;;;25.47;;
20824;SDS011;10573;50.936;6.978;2024-01-11T01:06:42;44.83;;;25.57;;
20824;SDS011;10573;50.936;6.978;2024-01-11T01:09:08;45.23;;;26.40;;
20824;SDS011;10573;50.936;6.978;2024-01-11T01:11:34;50.38;;;27.88;;
20824;SDS011;10573;50.936;6.978;2024-01-11T01:13:59;48.70;;;27.00;;
20824;SDS011;10573;50.936;6.978;2024-01-11T01:16:24;50.20;;;26.45;;
20824;SDS011;10573;50.936;6.978;2024-01-11T01:18:50;42.97;;;25.40;;
20824;SDS011;10573;50.936;6.978;2024-01-11T01:21:15;44.67;;;26.17;;
20824;SDS011;10573;50.936;6.978;2024-01-11T01:23:41;44.70;;;26.87;;
20824;SDS011;10573;50.936;6.978;2024-01-11T01:26:06;45.63;;;26.90;;
20824;SDS011;10573;50.936;6.978;2024-01-11T01:28:32;45.13;;;26.50;;
20824;SDS011;10573;50.936;6.978;2024-01-11T01:30:57;45.77;;;26.60;;
20824;SDS011;10573;50.936;6.978;2024-01-11T01:33:23;48.23;;;26.90;;
20824;SDS011;10573;50.936;6.978;2024-01-11T01:35:48;46.93;;;25.30;;
20824;SDS011;10573;50.936;6.978;2024-01-11T01:38:13;46.37;;;26.50;;
20824;SDS011;10573;50.936;6.978;2024-01-11T01:40:39;44.47;;;26.03;;
20824;SDS011;10573;50.936;6.978;2024-01-11T01:43:07;44.33;;;26.07;;
20824;SDS011;10573;50.936;6.978;2024-01-11T01:45:34;45.05;;;25.90;;
20824;SDS011;10573;50.936;6.978;2024-01-11T01:47:59;51.13;;;27.27;;
20824;SDS011;10573;50.936;6.978;2024-01-11T01:50:25;48.15;;;25.90;;
20824;SDS011;10573;50.936;6.978;2024-01-11T01:52:51;46.03;;;25.98;;
20824;SDS011;10573;50.936;6.978;2024-01-11T01:55:17;45.60;;;26.47;;
20824;SDS011;10573;50.936;6.978;2024-01-11T01:57:44;46.53;;;25.95;;
20824;SDS011;10573;50.936;6.978;2024-01-11T02:00:12;42.92;;;26.40;;
20824;SDS011;10573;50.936;6.978;2024-01-11T02:02:44;47.13;;;26.43;;
20824;SDS011;10573;50.936;6.978;2024-01-11T02:05:11;46.10;;;25.90;;
20824;SDS011;10573;50.936;6.978;2024-01-11T02:07:39;45.13;;;25.73;;
20824;SDS011;10573;50.936;6.978;2024-01-11T02:10:06;47.58;;;25.80;;
20824;SDS011;10573;50.936;6.978;2024-01-11T02:12:32;45.30;;;25.92;;
20824;SDS011;10573;50.936;6.978;2024-01-11T02:15:00;44.93;;;25.47;;
20824;SDS011;10573;50.936;6.978;2024-01-11T02:17:28;48.85;;;26.45;;
20824;SDS011;10573;50.936;6.978;2024-01-11T02:19:53;43.40;;;26.20;;
20824;SDS011;10573;50.936;6.978;2024-01-11T02:22:20;51.38;;;26.30;;
20824;SDS011;10573;50.936;6.978;2024-01-11T02:24:49;45.53;;;26.00;;
20824;SDS011;10573;50.936;6.978;2024-01-11T02:27:14;46.20;;;26.67;;
20824;SDS011;10573;50.936;6.978;2024-01-11T02:29:40;43.60;;;25.20;;
20824;SDS011;10573;50.936;6.978;2024-01-11T02:32:05;44.63;;;26.13;;
20824;SDS011;10573;50.936;6.978;2024-01-11T02:34:31;42.25;;;25.27;;
20824;SDS011;10573;50.936;6.978;2024-01-11T02:36:59;50.83;;;26.77;;
20824;SDS011;10573;50.936;6.978;2024-01-11T02:39:25;48.93;;;27.03;;
20824;SDS011;10573;50.936;6.978;2024-01-11T02:41:52;43.63;;;25.65;;
20824;SDS011;10573;50.936;6.978;2024-01-11T02:44:22;47.03;;;26.75;;
20824;SDS011;10573;50.936;6.978;2024-01-11T02:46:47;47.93;;;26.73;;
20824;SDS011;10573;50.936;6.978;2024-01-11T02:49:12;50.40;;;27.20;;
20824;SDS011;10573;50.936;6.978;2024-01-11T02:51:38;46.00;;;26.02;;
20824;SDS011;10573;50.936;6.978;2024-01-11T02:54:03;48.50;;;26.43;;
20824;SDS011;10573;50.936;6.978;2024-01-11T02:56:29;46.80;;;26.53;;
20824;SDS011;10573;50.936;6.978;2024-01-11T02:58:54;46.93;;;26.87;;
20824;SDS011;10573;50.936;6.978;2024-01-11T03:01:19;48.97;;;26.87;;
20824;SDS011;10573;50.936;6.978;2024-01-11T03:03:45;48.73;;;26.53;;
20824;SDS011;10573;50.936;6.978;2024-01-11T03:06:10;51.83;;;26.93;;
20824;SDS011;10573;50.936;6.978;2024-01-11T03:08:36;47.78;;;27.33;;
20824;SDS011;10573;50.936;6.978;2024-01-11T03:11:01;47.75;;;27.65;;
20824;SDS011;10573;50.936;6.978;2024-01-11T03:13:26;50.57;;;26.47;;
20824;SDS011;10573;50.936;6.978;2024-01-11T03:15:52;47.03;;;26.27;;
20824;SDS011;10573;50.936;6.978;2024-01-11T03:18:17;46.67;;;27.13;;
20824;SDS011;10573;50.936;6.978;2024-01-11T03:20:43;47.77;;;26.90;;
20824;SDS011;10573;50.936;6.978;2024-01-11T03:23:08;47.50;;;26.40;;
20824;SDS011;10573;50.936;6.978;2024-01-11T03:25:33;47.33;;;27.87;;
20824;SDS011;10573;50.936;6.978;2024-01-11T03:27:59;51.10;;;27.08;;
20824;SDS011;10573;50.936;6.978;2024-01-11T03:30:25;52.20;;;27.58;;
20824;SDS011;10573;50.936;6.978;2024-01-11T03:32:50;47.15;;;27.38;;
20824;SDS011;10573;50.936;6.978;2024-01-11T03:35:17;47.23;;;26.53;;
20824;SDS011;10573;50.936;6.978;2024-01-11T03:37:43;47.45;;;26.80;;
20824;SDS011;10573;50.936;6.978;2024-01-11T03:40:09;49.03;;;27.75;;
20824;SDS011;10573;50.936;6.978;2024-01-11T03:42:34;45.43;;;26.80;;
20824;SDS011;10573;50.936;6.978;2024-01-11T03:45:00;50.07;;;26.83;;
20824;SDS011;10573;50.936;6.978;2024-01-11T03:47:25;47.00;;;26.57;;
20824;SDS011;10573;50.936;6.978;2024-01-11T03:49:51;51.77;;;28.87;;
20824;SDS011;10573;50.936;6.978;2024-01-11T03:52:16;51.33;;;28.08;;
20824;SDS011;10573;50.936;6.978;2024-01-11T03:54:42;51.47;;;28.65;;
20824;SDS011;10573;50.936;6.978;2024-01-11T03:57:07;49.50;;;27.25;;
20824;SDS011;10573;50.936;6.978;2024-01-11T03:59:32;48.97;;;27.37;;
20824;SDS011;10573;50.936;6.978;2024-01-11T04:01:58;47.53;;;27.17;;
20824;SDS011;10573;50.936;6.978;2024-01-11T04:04:24;47.95;;;26.30;;
20824;SDS011;10573;50.936;6.978;2024-01-11T04:06:50;49.70;;;27.30;;
20824;SDS011;10573;50.936;6.978;2024-01-11T04:09:16;46.00;;;26.55;;
20824;SDS011;10573;50.936;6.978;2024-01-11T04:11:42;48.00;;;26.63;;
20824;SDS011;10573;50.936;6.978;2024-01-11T04:14:07;49.33;;;26.60;;
20824;SDS011;10573;50.936;6.978;2024-01-11T04:16:33;46.30;;;26.33;;
20824;SDS011;10573;50.936;6.978;2024-01-11T04:18:59;48.03;;;27.10;;
20824;SDS011;10573;50.936;6.978;2024-01-11T04:21:25;46.80;;;27.02;;
20824;SDS011;10573;50.936;6.978;2024-01-11T04:23:54;49.03;;;27.35;;
20824;SDS011;10573;50.936;6.978;2024-01-11T04:26:19;47.70;;;27.10;;
20824;SDS011;10573;50.936;6.978;2024-01-11T04:28:45;45.13;;;26.75;;
20824;SDS011;10573;50.936;6.978;2024-01-11T04:31:14;49.22;;;27.48;;
20824;SDS011;10573;50.936;6.978;2024-01-11T04:33:42;48.65;;;26.15;;
20824;SDS011;10573;50.936;6.978;2024-01-11T04:36:08;48.80;;;27.02;;
20824;SDS011;10573;50.936;6.978;2024-01-11T04:38:34;50.65;;;27.10;;
20824;SDS011;10573;50.936;6.978;2024-01-11T04:40:59;50.40;;;27.83;;
20824;SDS011;10573;50.936;6.978;2024-01-11T04:43:25;52.03;;;26.80;;
20824;SDS011;10573;50.936;6.978;2024-01-11T04:45:51;52.10;;;27.80;;
20824;SDS011;10573;50.936;6.978;2024-01-11T04:48:16;50.45;;;27.88;;
20824;SDS011;10573;50.936;6.978;2024-01-11T04:50:42;45.22;;;26.50;;
20824;SDS011;10573;50.936;6.978;2024-01-11T04:53:08;49.17;;;27.05;;
20824;SDS011;10573;50.936;6.978;2024-01-11T04:55:34;46.47;;;26.70;;
20824;SDS011;10573;50.936;6.978;2024-01-11T04:57:59;46.67;;;27.17;;
20824;SDS011;10573;50.936;6.978;2024-01-11T05:00:24;46.60;;;26.33;;
20824;SDS011;10573;50.936;6.978;2024-01-11T05:02:50;42.47;;;25.03;;
20824;SDS011;10573;50.936;6.978;2024-01-11T05:05:15;46.37;;;26.17;;
20824;SDS011;10573;50.936;6.978;2024-01-11T05:07:41;44.43;;;25.50;;
20824;SDS011;10573;50.936;6.978;2024-01-11T05:10:06;46.45;;;26.67;;
20824;SDS011;10573;50.936;6.978;2024-01-11T05:12:32;46.53;;;26.73;;
20824;SDS011;10573;50.936;6.978;2024-01-11T05:14:58;46.13;;;25.80;;
20824;SDS011;10573;50.936;6.978;2024-01-11T05:17:24;45.87;;;26.40;;
20824;SDS011;10573;50.936;6.978;2024-01-11T05:19:51;45.93;;;25.67;;
20824;SDS011;10573;50.936;6.978;2024-01-11T05:22:17;47.67;;;26.03;;
20824;SDS011;10573;50.936;6.978;2024-01-11T05:24:43;43.72;;;25.73;;
20824;SDS011;10573;50.936;6.978;2024-01-11T05:27:08;45.60;;;25.70;;
20824;SDS011;10573;50.936;6.978;2024-01-11T05:29:34;48.30;;;26.10;;
20824;SDS011;10573;50.936;6.978;2024-01-11T05:31:59;47.90;;;26.57;;
20824;SDS011;10573;50.936;6.978;2024-01-11T05:34:25;48.83;;;26.30;;
20824;SDS011;10573;50.936;6.978;2024-01-11T05:36:50;46.20;;;25.97;;
20824;SDS011;10573;50.936;6.978;2024-01-11T05:39:16;47.53;;;26.63;;
20824;SDS011;10573;50.936;6.978;2024-01-11T05:41:44;45.17;;;26.37;;
20824;SDS011;10573;50.936;6.978;2024-01-11T05:44:10;46.95;;;26.80;;
20824;SDS011;10573;50.936;6.978;2024-01-11T05:46:35;46.70;;;26.80;;
20824;SDS011;10573;50.936;6.978;2024-01-11T05:49:01;45.03;;;26.73;;
20824;SDS011;10573;50.936;6.978;2024-01-11T05:51:27;47.20;;;26.43;;
20824;SDS011;10573;50.936;6.978;2024-01-11T05:53:52;46.40;;;27.10;;
20824;SDS011;10573;50.936;6.978;2024-01-11T05:56:18;48.33;;;26.93;;
20824;SDS011;10573;50.936;6.978;2024-01-11T05:58:45;53.70;;;27.07;;
20824;SDS011;10573;50.936;6.978;2024-01-11T06:01:10;49.50;;;27.03;;
20824;SDS011;10573;50.936;6.978;2024-01-11T06:03:36;49.20;;;27.13;;
20824;SDS011;10573;50.936;6.978;2024-01-11T06:06:03;50.55;;;27.90;;
20824;SDS011;10573;50.936;6.978;2024-01-11T06:08:29;50.40;;;27.75;;
20824;SDS011;10573;50.936;6.978;2024-01-11T06:10:56;48.40;;;27.52;;
20824;SDS011;10573;50.936;6.978;2024-01-11T06:13:21;47.33;;;27.30;;
20824;SDS011;10573;50.936;6.978;2024-01-11T06:15:47;45.57;;;27.20;;
20824;SDS011;10573;50.936;6.978;2024-01-11T06:18:12;45.47;;;26.53;;
20824;SDS011;10573;50.936;6.978;2024-01-11T06:20:37;50.33;;;26.43;;
20824;SDS011;10573;50.936;6.978;2024-01-11T06:23:03;54.70;;;30.20;;
20824;SDS011;10573;50.936;6.978;2024-01-11T06:25:28;50.67;;;27.10;;
20824;SDS011;10573;50.936;6.978;2024-01-11T06:27:54;52.13;;;27.93;;
20824;SDS011;10573;50.936;6.978;2024-01-11T06:30:19;52.07;;;27.63;;
20824;SDS011;10573;50.936;6.978;2024-01-11T06:32:45;48.90;;;26.53;;
20824;SDS011;10573;50.936;6.978;2024-01-11T06:35:10;49.10;;;28.10;;
20824;SDS011;10573;50.936;6.978;2024-01-11T06:37:36;49.97;;;27.23;;
20824;SDS011;10573;50.936;6.978;2024-01-11T06:40:01;48.90;;;27.47;;
20824;SDS011;10573;50.936;6.978;2024-01-11T06:42:28;47.50;;;25.97;;
20824;SDS011;10573;50.936;6.978;2024-01-11T06:44:54;56.72;;;31.40;;
20824;SDS011;10573;50.936;6.978;2024-01-11T06:47:20;53.10;;;29.53;;
20824;SDS011;10573;50.936;6.978;2024-01-11T06:49:45;52.37;;;29.43;;
20824;SDS011;10573;50.936;6.978;2024-01-11T06:52:11;51.80;;;28.80;;
20824;SDS011;10573;50.936;6.978;2024-01-11T06:54:36;52.58;;;28.90;;
20824;SDS011;10573;50.936;6.978;2024-01-11T06:57:01;50.70;;;28.00;;
20824;SDS011;10573;50.936;6.978;2024-01-11T06:59:27;52.78;;;29.52;;
20824;SDS011;10573;50.936;6.978;2024-01-11T07:01:52;56.03;;;30.77;;
20824;SDS011;10573;50.936;6.978;2024-01-11T07:04:18;51.53;;;28.67;;
20824;SDS011;10573;50.936;6.978;2024-01-11T07:06:43;51.97;;;30.00;;
20824;SDS011;10573;50.936;6.978;2024-01-11T07:09:09;49.03;;;27.97;;
20824;SDS011;10573;50.936;6.978;2024-01-11T07:11:36;51.78;;;28.85;;
20824;SDS011;10573;50.936;6.978;2024-01-11T07:14:01;53.35;;;28.73;;
20824;SDS011;10573;50.936;6.978;2024-01-11T07:16:27;49.70;;;28.88;;
20824;SDS011;10573;50.936;6.978;2024-01-11T07:18:52;56.00;;;30.15;;
20824;SDS011;10573;50.936;6.978;2024-01-11T07:21:24;49.73;;;28.47;;
20824;SDS011;10573;50.936;6.978;2024-01-11T07:23:57;55.75;;;32.03;;
20824;SDS011;10573;50.936;6.978;2024-01-11T07:26:25;52.28;;;28.80;;
20824;SDS011;10573;50.936;6.978;2024-01-11T07:28:51;56.03;;;30.38;;
20824;SDS011;10573;50.936;6.978;2024-01-11T07:31:16;53.22;;;29.55;;
20824;SDS011;10573;50.936;6.978;2024-01-11T07:33:42;53.13;;;28.55;;
20824;SDS011;10573;50.936;6.978;2024-01-11T07:36:08;53.10;;;29.17;;
20824;SDS011;10573;50.936;6.978;2024-01-11T07:38:34;54.10;;;30.03;;
20824;SDS011;10573;50.936;6.978;2024-01-11T07:41:00;50.80;;;29.00;;
20824;SDS011;10573;50.936;6.978;2024-01-11T07:43:26;53.83;;;30.00;;
20824;SDS011;10573;50.936;6.978;2024-01-11T07:45:54;54.28;;;29.20;;
20824;SDS011;10573;50.936;6.978;2024-01-11T07:48:21;53.83;;;29.90;;
20824;SDS011;10573;50.936;6.978;2024-01-11T07:50:49;58.85;;;30.05;;
20824;SDS011;10573;50.936;6.978;2024-01-11T07:53:15;54.83;;;29.80;;
20824;SDS011;10573;50.936;6.978;2024-01-11T07:55:40;58.90;;;30.40;;
20824;SDS011;10573;50.936;6.978;2024-01-11T07:58:06;62.17;;;33.77;;
20824;SDS011;10573;50.936;6.978;2024-01-11T08:00:32;56.38;;;30.73;;
20824;SDS011;10573;50.936;6.978;2024-01-11T08:02:58;56.43;;;30.40;;
20824;SDS011;10573;50.936;6.978;2024-01-11T08:05:24;54.42;;;29.17;;
20824;SDS011;10573;50.936;6.978;2024-01-11T08:07:50;49.07;;;29.10;;
20824;SDS011;10573;50.936;6.978;2024-01-11T08:10:16;50.85;;;29.20;;
20824;SDS011;10573;50.936;6.978;2024-01-11T08:12:42;52.42;;;28.80;;
20824;SDS011;10573;50.936;6.978;2024-01-11T08:15:08;53.37;;;28.77;;
20824;SDS011;10573;50.936;6.978;2024-01-11T08:17:46;52.55;;;28.88;;
20824;SDS011;10573;50.936;6.978;2024-01-11T08:20:12;55.63;;;29.20;;
20824;SDS011;10573;50.936;6.978;2024-01-11T08:22:41;51.10;;;28.92;;
20824;SDS011;10573;50.936;6.978;2024-01-11T08:25:11;58.75;;;30.42;;
20824;SDS011;10573;50.936;6.978;2024-01-11T08:27:38;55.78;;;29.67;;
20824;SDS011;10573;50.936;6.978;2024-01-11T08:30:03;56.00;;;30.67;;
20824;SDS011;10573;50.936;6.978;2024-01-11T08:32:31;59.72;;;30.90;;
20824;SDS011;10573;50.936;6.978;2024-01-11T08:35:04;57.05;;;30.92;;
20824;SDS011;10573;50.936;6.978;2024-01-11T08:37:35;57.97;;;29.52;;
20824;SDS011;10573;50.936;6.978;2024-01-11T08:40:01;55.78;;;29.17;;
20824;SDS011;10573;50.936;6.978;2024-01-11T08:42:30;51.88;;;29.88;;
20824;SDS011;10573;50.936;6.978;2024-01-11T08:44:56;53.83;;;29.50;;
20824;SDS011;10573;50.936;6.978;2024-01-11T08:47:21;53.00;;;29.60;;
20824;SDS011;10573;50.936;6.978;2024-01-11T08:49:47;59.40;;;30.07;;
20824;SDS011;10573;50.936;6.978;2024-01-11T08:52:12;51.03;;;29.23;;
20824;SDS011;10573;50.936;6.978;2024-01-11T08:54:38;51.73;;;28.87;;
20824;SDS011;10573;50.936;6.978;2024-01-11T08:57:04;55.53;;;30.60;;
20824;SDS011;10573;50.936;6.978;2024-01-11T08:59:30;57.42;;;30.63;;
20824;SDS011;10573;50.936;6.978;2024-01-11T09:01:56;54.58;;;30.33;;
20824;SDS011;10573;50.936;6.978;2024-01-11T09:04:22;55.45;;;30.15;;
20824;SDS011;10573;50.936;6.978;2024-01-11T09:06:47;53.83;;;30.60;;
20824;SDS011;10573;50.936;6.978;2024-01-11T09:09:13;57.47;;;30.02;;
20824;SDS011;10573;50.936;6.978;2024-01-11T09:11:39;59.30;;;32.22;;
20824;SDS011;10573;50.936;6.978;2024-01-11T09:14:06;55.28;;;29.83;;
20824;SDS011;10573;50.936;6.978;2024-01-11T09:16:34;57.92;;;30.40;;
20824;SDS011;10573;50.936;6.978;2024-01-11T09:19:01;57.75;;;30.38;;
20824;SDS011;10573;50.936;6.978;2024-01-11T09:21:27;56.93;;;30.80;;
20824;SDS011;10573;50.936;6.978;2024-01-11T09:23:52;61.43;;;31.37;;
20824;SDS011;10573;50.936;6.978;2024-01-11T09:26:18;57.77;;;29.80;;
20824;SDS011;10573;50.936;6.978;2024-01-11T09:28:43;58.13;;;29.03;;
20824;SDS011;10573;50.936;6.978;2024-01-11T09:31:10;58.75;;;30.55;;
20824;SDS011;10573;50.936;6.978;2024-01-11T09:33:37;57.40;;;31.13;;
20824;SDS011;10573;50.936;6.978;2024-01-11T09:36:03;55.25;;;29.80;;
20824;SDS011;10573;50.936;6.978;2024-01-11T09:38:29;56.92;;;30.40;;
20824;SDS011;10573;50.936;6.978;2024-01-11T09:41:16;59.08;;;31.70;;
20824;SDS011;10573;50.936;6.978;2024-01-11T09:43:41;58.20;;;31.25;;
20824;SDS011;10573;50.936;6.978;2024-01-11T09:46:07;52.72;;;30.85;;
20824;SDS011;10573;50.936;6.978;2024-01-11T09:48:35;54.63;;;30.42;;
20824;SDS011;10573;50.936;6.978;2024-01-11T09:51:02;55.65;;;30.95;;
20824;SDS011;10573;50.936;6.978;2024-01-11T09:53:31;56.63;;;31.05;;
20824;SDS011;10573;50.936;6.978;2024-01-11T09:55:58;55.88;;;30.65;;
20824;SDS011;10573;50.936;6.978;2024-01-11T09:58:24;61.28;;;31.88;;
20824;SDS011;10573;50.936;6.978;2024-01-11T10:00:54;60.50;;;32.83;;
20824;SDS011;10573;50.936;6.978;2024-01-11T10:03:24;58.97;;;31.90;;
20824;SDS011;10573;50.936;6.978;2024-01-11T10:05:51;58.97;;;31.90;;
20824;SDS011;10573;50.936;6.978;2024-01-11T10:08:38;60.13;;;32.65;;
20824;SDS011;10573;50.936;6.978;2024-01-11T10:11:04;60.03;;;32.13;;
20824;SDS011;10573;50.936;6.978;2024-01-11T10:13:30;62.33;;;32.53;;
20824;SDS011;10573;50.936;6.978;2024-01-11T10:16:09;58.15;;;32.03;;
20824;SDS011;10573;50.936;6.978;2024-01-11T10:18:38;61.08;;;33.92;;
20824;SDS011;10573;50.936;6.978;2024-01-11T10:21:04;62.38;;;35.25;;
20824;SDS011;10573;50.936;6.978;2024-01-11T10:23:34;62.78;;;34.20;;
20824;SDS011;10573;50.936;6.978;2024-01-11T10:26:01;61.58;;;35.15;;
20824;SDS011;10573;50.936;6.978;2024-01-11T10:28:27;60.47;;;34.05;;
20824;SDS011;10573;50.936;6.978;2024-01-11T10:30:53;58.85;;;33.03;;
20824;SDS011;10573;50.936;6.978;2024-01-11T10:33:20;56.97;;;32.38;;
20824;SDS011;10573;50.936;6.978;2024-01-11T10:35:49;57.00;;;33.63;;
20824;SDS011;10573;50.936;6.978;2024-01-11T10:38:15;57.97;;;32.25;;
20824;SDS011;10573;50.936;6.978;2024-01-11T10:40:41;62.10;;;33.35;;
20824;SDS011;10573;50.936;6.978;2024-01-11T10:43:10;59.33;;;34.25;;
20824;SDS011;10573;50.936;6.978;2024-01-11T10:45:36;59.35;;;33.35;;
20824;SDS011;10573;50.936;6.978;2024-01-11T10:48:15;59.47;;;32.47;;
20824;SDS011;10573;50.936;6.978;2024-01-11T10:50:45;60.38;;;33.92;;
20824;SDS011;10573;50.936;6.978;2024-01-11T10:55:57;65.85;;;35.03;;
20824;SDS011;10573;50.936;6.978;2024-01-11T10:58:24;62.67;;;34.80;;
20824;SDS011;10573;50.936;6.978;2024-01-11T11:00:51;65.68;;;34.58;;
20824;SDS011;10573;50.936;6.978;2024-01-11T11:03:23;56.28;;;32.20;;
20824;SDS011;10573;50.936;6.978;2024-01-11T11:05:53;59.28;;;32.58;;
20824;SDS011;10573;50.936;6.978;2024-01-11T11:08:23;60.53;;;32.65;;
20824;SDS011;10573;50.936;6.978;2024-01-11T11:10:58;59.00;;;32.72;;
20824;SDS011;10573;50.936;6.978;2024-01-11T11:13:24;61.13;;;32.65;;
20824;SDS011;10573;50.936;6.978;2024-01-11T11:15:50;63.38;;;32.53;;
20824;SDS011;10573;50.936;6.978;2024-01-11T11:18:17;59.33;;;33.40;;
20824;SDS011;10573;50.936;6.978;2024-01-11T11:20:43;59.33;;;32.40;;
20824;SDS011;10573;50.936;6.978;2024-01-11T11:23:11;61.42;;;33.13;;
20824;SDS011;10573;50.936;6.978;2024-01-11T11:25:41;57.45;;;33.25;;
20824;SDS011;10573;50.936;6.978;2024-01-11T11:28:07;61.83;;;33.13;;
20824;SDS011;10573;50.936;6.978;2024-01-11T11:30:36;60.87;;;34.50;;
20824;SDS011;10573;50.936;6.978;2024-01-11T11:33:09;63.50;;;33.85;;
20824;SDS011;10573;50.936;6.978;2024-01-11T11:35:35;65.63;;;35.07;;
20824;SDS011;10573;50.936;6.978;2024-01-11T11:38:01;59.55;;;33.55;;
20824;SDS011;10573;50.936;6.978;2024-01-11T11:40:37;63.92;;;33.67;;
20824;SDS011;10573;50.936;6.978;2024-01-11T11:43:08;63.13;;;34.50;;
20824;SDS011;10573;50.936;6.978;2024-01-11T11:45:34;62.97;;;33.65;;
20824;SDS011;10573;50.936;6.978;2024-01-11T11:48:00;61.20;;;33.38;;
20824;SDS011;10573;50.936;6.978;2024-01-11T11:50:25;60.63;;;32.50;;
20824;SDS011;10573;50.936;6.978;2024-01-11T11:52:55;57.53;;;32.42;;
20824;SDS011;10573;50.936;6.978;2024-01-11T11:55:22;70.70;;;34.08;;
20824;SDS011;10573;50.936;6.978;2024-01-11T11:57:49;65.53;;;33.10;;
20824;SDS011;10573;50.936;6.978;2024-01-11T12:00:16;59.83;;;33.40;;
20824;SDS011;10573;50.936;6.978;2024-01-11T12:02:41;60.87;;;32.73;;
20824;SDS011;10573;50.936;6.978;2024-01-11T12:05:07;53.93;;;29.47;;
20824;SDS011;10573;50.936;6.978;2024-01-11T12:07:33;55.63;;;30.42;;
20824;SDS011;10573;50.936;6.978;2024-01-11T12:09:58;61.10;;;32.13;;
20824;SDS011;10573;50.936;6.978;2024-01-11T12:12:24;57.45;;;31.77;;
20824;SDS011;10573;50.936;6.978;2024-01-11T12:14:50;59.57;;;32.07;;
20824;SDS011;10573;50.936;6.978;2024-01-11T12:17:16;61.53;;;32.38;;
20824;SDS011;10573;50.936;6.978;2024-01-11T12:19:42;60.00;;;30.70;;
20824;SDS011;10573;50.936;6.978;2024-01-11T12:22:08;59.38;;;29.80;;
20824;SDS011;10573;50.936;6.978;2024-01-11T12:24:34;58.80;;;31.27;;
20824;SDS011;10573;50.936;6.978;2024-01-11T12:27:00;57.97;;;30.13;;
20824;SDS011;10573;50.936;6.978;2024-01-11T12:29:28;50.97;;;30.13;;
20824;SDS011;10573;50.936;6.978;2024-01-11T12:31:57;50.47;;;28.53;;
20824;SDS011;10573;50.936;6.978;2024-01-11T12:34:23;49.20;;;28.07;;
20824;SDS011;10573;50.936;6.978;2024-01-11T12:36:50;50.17;;;30.40;;
20824;SDS011;10573;50.936;6.978;2024-01-11T12:39:17;52.25;;;28.90;;
20824;SDS011;10573;50.936;6.978;2024-01-11T12:41:42;48.50;;;27.93;;
20824;SDS011;10573;50.936;6.978;2024-01-11T12:44:08;47.75;;;27.48;;
20824;SDS011;10573;50.936;6.978;2024-01-11T12:46:33;49.13;;;27.73;;
20824;SDS011;10573;50.936;6.978;2024-01-11T12:49:01;48.22;;;26.33;;
20824;SDS011;10573;50.936;6.978;2024-01-11T12:51:27;46.90;;;25.70;;
20824;SDS011;10573;50.936;6.978;2024-01-11T12:54:00;42.53;;;26.63;;
20824;SDS011;10573;50.936;6.978;2024-01-11T12:56:53;40.33;;;26.73;;
20824;SDS011;10573;50.936;6.978;2024-01-11T12:59:20;42.72;;;26.15;;
20824;SDS011;10573;50.936;6.978;2024-01-11T13:01:50;46.80;;;28.15;;
20824;SDS011;10573;50.936;6.978;2024-01-11T13:04:16;47.73;;;28.37;;
20824;SDS011;10573;50.936;6.978;2024-01-11T13:06:42;50.42;;;28.02;;
20824;SDS011;10573;50.936;6.978;2024-01-11T13:09:07;53.33;;;29.13;;
20824;SDS011;10573;50.936;6.978;2024-01-11T13:11:33;46.30;;;29.30;;
20824;SDS011;10573;50.936;6.978;2024-01-11T13:13:58;52.03;;;28.45;;
20824;SDS011;10573;50.936;6.978;2024-01-11T13:16:26;47.43;;;29.73;;
20824;SDS011;10573;50.936;6.978;2024-01-11T13:18:51;47.93;;;29.37;;
20824;SDS011;10573;50.936;6.978;2024-01-11T13:21:17;52.42;;;30.95;;
20824;SDS011;10573;50.936;6.978;2024-01-11T13:23:42;48.07;;;29.43;;
20824;SDS011;10573;50.936;6.978;2024-01-11T13:26:08;46.83;;;29.15;;
20824;SDS011;10573;50.936;6.978;2024-01-11T13:28:33;47.17;;;27.77;;
20824;SDS011;10573;50.936;6.978;2024-01-11T13:30:59;46.80;;;27.77;;
20824;SDS011;10573;50.936;6.978;2024-01-11T13:33:25;48.90;;;29.13;;
20824;SDS011;10573;50.936;6.978;2024-01-11T13:35:51;46.33;;;28.73;;
20824;SDS011;10573;50.936;6.978;2024-01-11T13:38:16;50.53;;;29.33;;
20824;SDS011;10573;50.936;6.978;2024-01-11T13:40:42;49.67;;;29.03;;
20824;SDS011;10573;50.936;6.978;2024-01-11T13:43:08;51.47;;;29.75;;
20824;SDS011;10573;50.936;6.978;2024-01-11T13:45:34;59.67;;;30.42;;
20824;SDS011;10573;50.936;6.978;2024-01-11T13:48:05;51.72;;;30.05;;
20824;SDS011;10573;50.936;6.978;2024-01-11T13:50:32;57.47;;;30.13;;
20824;SDS011;10573;50.936;6.978;2024-01-11T13:52:58;54.75;;;31.13;;
20824;SDS011;10573;50.936;6.978;2024-01-11T13:55:30;62.90;;;31.10;;
20824;SDS011;10573;50.936;6.978;2024-01-11T13:58:08;56.78;;;31.38;;
20824;SDS011;10573;50.936;6.978;2024-01-11T14:00:34;53.25;;;31.48;;
20824;SDS011;10573;50.936;6.978;2024-01-11T14:02:59;54.30;;;30.37;;
20824;SDS011;10573;50.936;6.978;2024-01-11T14:05:26;54.75;;;31.00;;
20824;SDS011;10573;50.936;6.978;2024-01-11T14:07:52;57.97;;;30.23;;
20824;SDS011;10573;50.936;6.978;2024-01-11T14:10:23;54.88;;;30.65;;
20824;SDS011;10573;50.936;6.978;2024-01-11T14:12:48;53.38;;;30.20;;
20824;SDS011;10573;50.936;6.978;2024-01-11T14:15:16;56.05;;;30.33;;
20824;SDS011;10573;50.936;6.978;2024-01-11T14:17:42;53.70;;;29.33;;
20824;SDS011;10573;50.936;6.978;2024-01-11T14:20:09;51.67;;;29.63;;